Tiempo atmosférico en la estación meteorológica de Brozas , Cáceres (411 m.)



Fecha
DESCASC
Temp. máxima en grados centígrados (hora)
DESCASC
Temp. mínima en grados centígrados (hora)
DESCASC
Temp. media en grados centígrados
DESCASC
Racha de viento máxima en m/sg (hora)
DESCASC
Velocidad máxima media en intervalos de 10 minutos(hora)
DESCASC
Precipitaciones diarias en mm
DESCASC
Precipitaciones de 00:00 a 06:00 en mm
DESCASC
Precipitaciones de 06:00 a 12:00 en mm
DESCASC
Precipitaciones de 12:00 a 18:00 en mm
DESCASC
Precipitaciones de 18:00 a 24:00 en mm
DESCASC
18-08-2019 32.7 (18:10) 15.9 (07:40) 24.3 12.5 (19:00) 9.17 (19:50) 0 0 0 0 0
17-08-2019 37.2 (19:10) 17.9 (07:50) 27.6 10.83 (22:40) 8.33 (22:40) 0 0 0 0 0
16-08-2019 37.2 (18:10) 19.5 (08:00) 28.4 10.28 (20:40) 8.33 (20:30) 0 0 0 0 0
15-08-2019 37.3 (18:30) 21.5 (00:00) 29.4 8.89 (17:40) 6.39 (22:40) 0 0 0 0 0
14-08-2019 35.1 (19:00) 17.6 (00:00) 26.3 8.61 (16:50) 6.11 (23:40) 0 0 0 0 0
13-08-2019 32 (17:30) 15.8 (00:00) 23.9 10.28 (11:20) 7.5 (11:30) 0 0 0 0 0
12-08-2019 29.1 (18:10) 12.7 (00:00) 20.9 13.33 (11:30) 8.61 (11:40) 0 0 0 0 0
11-08-2019 26.9 (17:00) 13.4 (00:00) 20.1 13.61 (15:00) 8.89 (21:40) 0 0 0 0 0
10-08-2019 30.4 (17:30) 13.7 (00:00) 22 11.11 (22:10) 8.61 (21:30) 0 0 0 0 0
09-08-2019 24.9 (19:50) 18.3 (00:00) 21.6 11.94 (16:00) 8.33 (10:10) 1 0 1 0 0
08-08-2019 33 (17:10) 19.1 (00:00) 26.1 12.5 (16:40) 7.78 (17:20) 0 0 0 0 0
07-08-2019 27.3 (17:00) 18.4 (00:00) 22.8 8.61 (17:00) 5 (11:40) 0.8 0 0.2 0.6 0
06-08-2019 33.8 (17:30) 16.6 (00:00) 25.2 11.67 (18:20) 7.5 (18:40) 0 0 0 0 0
05-08-2019 34.9 (17:30) 14.4 (00:00) 24.7 9.17 (22:50) 6.67 (23:00) 0 0 0 0 0
04-08-2019 35.1 (17:30) 17.9 (00:00) 26.5 11.67 (20:10) 8.06 (19:30) 0 0 0 0 0
03-08-2019 35.6 (18:20) 18.5 (00:00) 27 9.72 (21:40) 7.5 (21:50) 0 0 0 0 0
02-08-2019 35.3 (18:30) 14.5 (00:00) 24.9 7.78 (23:10) 6.11 (23:10) 0 0 0 0 0
01-08-2019 34.3 (17:40) 17.8 (00:00) 26 11.11 (19:40) 7.78 (21:00) 0 0 0 0 0
31-07-2019 34.7 (17:30) 15.5 (00:00) 25.1 10.28 (20:40) 7.78 (20:30) 0 0 0 0 0
30-07-2019 30.6 (19:10) 14.1 (00:00) 22.4 12.5 (06:40) 8.89 (06:40) 0 0 0 0 0
29-07-2019 30.5 (18:00) 14.1 (00:00) 22.3 12.78 (20:20) 9.44 (20:50) 0 0 0 0 0
28-07-2019 32 (19:30) 15.1 (00:00) 23.6 10.28 (22:30) 8.33 (22:30) 0 0 0 0 0
27-07-2019 27.4 (18:20) 14.5 (00:00) 20.9 11.39 (00:10) 9.17 (01:00) 0.8 0 0.2 0.6 0
26-07-2019 28.5 (16:00) 14.7 (00:00) 21.6 12.5 (19:00) 8.89 (18:50) 0 0 0 0 0
25-07-2019 33.5 (17:30) 18.8 (00:00) 26.1 11.94 (22:00) 9.44 (22:00) 0 0 0 0 0
24-07-2019 37.6 (16:50) 20.3 (00:00) 28.9 13.89 (18:20) 7.78 (21:50) 0 0 0 0 0
23-07-2019 36.5 (18:30) 24.4 (00:00) 30.4 11.67 (07:20) 8.61 (21:20) 0 0 0 0 0
22-07-2019 39.9 (18:00) 21.7 (00:00) 30.8 9.44 (19:30) 6.94 (20:00) 0 0 0 0 0

Gráficas

Temp. máximas Temp. mínimas Temp. medias Precipitaciones Rachas de viento máximas Velocidades máximas media en intervalos de 10 minutos

Datos horarios

Fecha y hora oficial Temperatura (ºC) Velocidad del viento (km/h) Dirección del viento Racha (km/h) Dirección de racha Precipitación (mm) Presión (hPa) Tendencia (hPa) Humedad (%)
2019-08-20 23:00:00 27.2 11 Norte 12 Norte 0 -- -- 21
2019-08-20 22:00:00 27.3 12 Norte 13 Norte 0 -- -- 22
2019-08-20 21:00:00 29.9 10 Norte 15 Norte 0 -- -- 20
2019-08-20 20:00:00 32.1 7 Norte 23 Norte 0 -- -- 21
2019-08-20 19:00:00 32.9 8 Norte 19 Norte 0 -- -- 21
2019-08-20 18:00:00 32.9 11 Nordeste 16 Nordeste 0 -- -- 22
2019-08-20 17:00:00 32.3 6 Este 24 Nordeste 0 -- -- 22
2019-08-20 16:00:00 31.6 10 Nordeste 25 Este 0 -- -- 24
2019-08-20 15:00:00 30.8 8 Este 27 Norte 0 -- -- 28
2019-08-20 14:00:00 29.7 19 Nordeste 31 Norte 0 -- -- 31
2019-08-20 13:00:00 27.7 17 Nordeste 29 Norte 0 -- -- 38
2019-08-20 12:00:00 25.1 17 Norte 29 Norte 0 -- -- 43
2019-08-20 11:00:00 23.3 15 Norte 22 Norte 0 -- -- 49
2019-08-20 10:00:00 19.5 10 Norte 17 Norte 0 -- -- 60
2019-08-20 09:00:00 16 8 Noroeste 11 Noroeste 0 -- -- 72
2019-08-20 08:00:00 14 9 Noroeste 13 Noroeste 0 -- -- 78
2019-08-20 07:00:00 14.1 12 Noroeste 16 Noroeste 0 -- -- 77
2019-08-20 06:00:00 15.1 12 Noroeste 18 Noroeste 0 -- -- 73
2019-08-20 05:00:00 15.7 10 Oeste 17 Oeste 0 -- -- 71
2019-08-20 04:00:00 16.4 12 Oeste 17 Oeste 0 -- -- 68
2019-08-20 03:00:00 17.4 15 Noroeste 21 Noroeste 0 -- -- 65
2019-08-20 02:00:00 18.7 16 Noroeste 29 Oeste 0 -- -- 59
2019-08-20 01:00:00 19.5 18 Noroeste 32 Oeste 0 -- -- 57
2019-08-20 00:00:00 20.7 18 Oeste 31 Oeste 0 -- -- 52
2019-08-19 23:00:00 22.5 21 Oeste 31 Oeste 0 -- -- 47
2019-08-19 22:00:00 23.9 23 Oeste 32 Oeste 0 -- -- 36
2019-08-19 21:00:00 24.9 26 Oeste 36 Oeste 0 -- -- 29
2019-08-19 20:00:00 27.7 27 Oeste 35 Oeste 0 -- -- 29
2019-08-19 19:00:00 29.3 19 Oeste 29 Oeste 0 -- -- 19
2019-08-19 18:00:00 30.3 17 Oeste 28 Oeste 0 -- -- 20
2019-08-19 17:00:00 30.8 10 Oeste 31 Oeste 0 -- -- 22
2019-08-19 16:00:00 30 9 Oeste 26 Oeste 0 -- -- 27
2019-08-19 15:00:00 29 11 Oeste 23 Noroeste 0 -- -- 26
2019-08-19 14:00:00 27.8 11 Oeste 17 Noroeste 0 -- -- 38
2019-08-19 13:00:00 26.2 8 Noroeste 14 Noroeste 0 -- -- 45
2019-08-19 12:00:00 24.1 7 Sudoeste 14 Sudoeste 0 -- -- 52
2019-08-19 11:00:00 21.9 6 Oeste 11 Oeste 0 -- -- 57
2019-08-19 10:00:00 19 6 Oeste 13 Oeste 0 -- -- 66
2019-08-19 09:00:00 16.2 9 Oeste 13 Oeste 0 -- -- 77
2019-08-19 08:00:00 13.8 8 Oeste 12 Noroeste 0 -- -- 85
2019-08-19 07:00:00 13.5 7 Oeste 15 Oeste 0 -- -- 86
2019-08-19 06:00:00 14.1 14 Noroeste 19 Noroeste 0 -- -- 85
2019-08-19 05:00:00 14.7 14 Noroeste 20 Noroeste 0 -- -- 83
2019-08-19 04:00:00 15.5 12 Noroeste 20 Oeste 0 -- -- 80
2019-08-19 03:00:00 16.7 6 Sudoeste 16 Oeste 0 -- -- 79
2019-08-19 02:00:00 18.1 16 Oeste 23 Oeste 0 -- -- 75
2019-08-19 01:00:00 19.5 17 Noroeste 31 Noroeste 0 -- -- 74
2019-08-19 00:00:00 21 20 Noroeste 33 Noroeste 0 -- -- 71
2019-08-18 23:00:00 22.9 24 Noroeste 33 Oeste 0 -- -- 64
2019-08-18 22:00:00 24.9 27 Oeste 38 Oeste 0 -- -- 61
2019-08-18 21:00:00 27.3 30 Oeste 40 Oeste 0 -- -- 53
2019-08-18 20:00:00 29.6 32 Oeste 44 Oeste 0 -- -- 46
2019-08-18 19:00:00 31.9 28 Oeste 45 Oeste 0 -- -- 38
2019-08-18 18:00:00 32.6 24 Oeste 41 Oeste 0 -- -- 34
2019-08-18 17:00:00 31.6 15 Oeste 36 Oeste 0 -- -- 35
2019-08-18 16:00:00 31 20 Oeste 35 Oeste 0 -- -- 33
2019-08-18 15:00:00 31.2 18 Oeste 35 Noroeste 0 -- -- 32
2019-08-18 14:00:00 29 19 Oeste 29 Oeste 0 -- -- 36
2019-08-18 13:00:00 27.1 21 Oeste 34 Oeste 0 -- -- 39
2019-08-18 12:00:00 25.5 10 Oeste 25 Oeste 0 -- -- 45
2019-08-18 11:00:00 22.8 16 Oeste 22 Oeste 0 -- -- 57
2019-08-18 10:00:00 20.4 17 Noroeste 23 Noroeste 0 -- -- 67
2019-08-18 09:00:00 17.8 16 Noroeste 22 Noroeste 0 -- -- 78
2019-08-18 08:00:00 16 12 Noroeste 18 Noroeste 0 -- -- 85
2019-08-18 07:00:00 16.2 14 Noroeste 20 Noroeste 0 -- -- 82
2019-08-18 06:00:00 17.2 14 Noroeste 20 Noroeste 0 -- -- 76
2019-08-18 05:00:00 18 12 Noroeste 16 Noroeste 0 -- -- 70
2019-08-18 04:00:00 18.4 11 Noroeste 15 Noroeste 0 -- -- 68
2019-08-18 03:00:00 19 10 Noroeste 17 Noroeste 0 -- -- 68
2019-08-18 02:00:00 21.1 14 Oeste 21 Oeste 0 -- -- 60
2019-08-18 01:00:00 22.7 18 Oeste 30 Oeste 0 -- -- 58
2019-08-18 00:00:00 24.8 22 Oeste 29 Oeste 0 -- -- 49
2019-08-17 23:00:00 27.3 24 Oeste 39 Oeste 0 -- -- 38
2019-08-17 22:00:00 30.4 24 Oeste 30 Oeste 0 -- -- 29
2019-08-17 21:00:00 33.7 20 Oeste 31 Oeste 0 -- -- 21
2019-08-17 20:00:00 36.2 17 Oeste 26 Sudoeste 0 -- -- 18
2019-08-17 19:00:00 37.1 5 Sur 28 Sudoeste 0 -- -- 14
2019-08-17 18:00:00 36.9 9 Sur 25 Sudoeste 0 -- -- 15
2019-08-17 17:00:00 36.5 15 Sur 31 Sudoeste 0 -- -- 16
2019-08-17 16:00:00 36.1 9 Sur 32 Sudeste 0 -- -- 17
2019-08-17 15:00:00 35.1 11 Sur 34 Sudoeste 0 -- -- 19
2019-08-17 14:00:00 33.6 9 Sudoeste 21 Sudoeste 0 -- -- 23
2019-08-17 13:00:00 31.9 7 Sur 16 Sudeste 0 -- -- 27
2019-08-17 12:00:00 30 7 Sur 12 Sur 0 -- -- 32
2019-08-17 11:00:00 27.2 5 Sur 10 Sur 0 -- -- 36
2019-08-17 10:00:00 23.9 3 Noroeste 6 Oeste 0 -- -- 43
2019-08-17 09:00:00 20.5 3 Oeste 13 Noroeste 0 -- -- 53
2019-08-17 08:00:00 17.9 11 Noroeste 16 Noroeste 0 -- -- 61
2019-08-17 07:00:00 18.5 10 Oeste 14 Oeste 0 -- -- 58
2019-08-17 06:00:00 19.2 10 Oeste 13 Noroeste 0 -- -- 55
2019-08-17 05:00:00 19.6 6 Oeste 13 Noroeste 0 -- -- 54
2019-08-17 04:00:00 20 11 Noroeste 14 Noroeste 0 -- -- 52
2019-08-17 03:00:00 21.2 13 Noroeste 16 Noroeste 0 -- -- 48
2019-08-17 02:00:00 23.1 12 Noroeste 15 Noroeste 0 -- -- 43
2019-08-17 01:00:00 24.1 11 Noroeste 19 Oeste 0 -- -- 41
2019-08-17 00:00:00 26.1 18 Noroeste 27 Oeste 0 -- -- 37
2019-08-16 23:00:00 27.9 20 Oeste 30 Oeste 0 -- -- 32
2019-08-16 22:00:00 29.9 21 Oeste 34 Oeste 0 -- -- 29
2019-08-16 21:00:00 32.8 26 Oeste 37 Oeste 0 -- -- 30
2019-08-16 20:00:00 36.2 14 Oeste 30 Noroeste 0 -- -- 22
2019-08-16 19:00:00 36.7 12 Noroeste 28 Oeste 0 -- -- 20
2019-08-16 18:00:00 37.1 14 Sudoeste 33 Noroeste 0 -- -- 20
2019-08-16 17:00:00 36.8 17 Oeste 30 Oeste 0 -- -- 21
2019-08-16 16:00:00 35.6 9 Noroeste 27 Oeste 0 -- -- 24
2019-08-16 15:00:00 34.8 12 Noroeste 24 Oeste 0 -- -- 27
2019-08-16 14:00:00 34 9 Oeste 22 Oeste 0 -- -- 29
2019-08-16 13:00:00 32.6 5 Oeste 15 Noroeste 0 -- -- 32
2019-08-16 12:00:00 30.9 7 Norte 15 Nordeste 0 -- -- 35
2019-08-16 11:00:00 28.7 11 Norte 18 Norte 0 -- -- 41
2019-08-16 10:00:00 25.8 10 Norte 16 Norte 0 -- -- 50
2019-08-16 09:00:00 21.9 7 Noroeste 13 Noroeste 0 -- -- 62
2019-08-16 08:00:00 19.5 12 Noroeste 15 Noroeste 0 -- -- 68
2019-08-16 07:00:00 20 11 Noroeste 14 Noroeste 0 -- -- 65
2019-08-16 06:00:00 20.9 12 Noroeste 14 Noroeste 0 -- -- 62
2019-08-16 05:00:00 21.3 10 Noroeste 15 Noroeste 0 -- -- 59
2019-08-16 04:00:00 22.2 15 Noroeste 17 Noroeste 0 -- -- 56
2019-08-16 03:00:00 23.8 13 Noroeste 14 Noroeste 0 -- -- 53
2019-08-16 02:00:00 24.5 12 Noroeste 18 Noroeste 0 -- -- 50
2019-08-16 01:00:00 25.7 15 Noroeste 22 Noroeste 0 -- -- 47
2019-08-16 00:00:00 27.2 17 Noroeste 27 Noroeste 0 -- -- 42
2019-08-15 23:00:00 29.3 23 Noroeste 31 Noroeste 0 -- -- 35
2019-08-15 22:00:00 31.1 17 Noroeste 25 Oeste 0 -- -- 29
2019-08-15 21:00:00 34.6 14 Noroeste 24 Oeste 0 -- -- 20
2019-08-15 20:00:00 36.3 14 Noroeste 28 Noroeste 0 -- -- 20
2019-08-15 19:00:00 36.9 5 Noroeste 28 Noroeste 0 -- -- 20
2019-08-15 18:00:00 37.1 8 Oeste 32 Noroeste 0 -- -- 19
2019-08-15 17:00:00 36.5 15 Noroeste 26 Noroeste 0 -- -- 19
2019-08-15 16:00:00 35.9 13 Noroeste 28 Noroeste 0 -- -- 20
2019-08-15 15:00:00 35.1 14 Noroeste 27 Nordeste 0 -- -- 21
2019-08-15 14:00:00 34.1 10 Norte 21 Norte 0 -- -- 24
2019-08-15 13:00:00 32.7 12 Norte 23 Noroeste 0 -- -- 27
2019-08-15 12:00:00 31.1 13 Norte 25 Norte 0 -- -- 33
2019-08-15 11:00:00 28.6 17 Nordeste 26 Nordeste 0 -- -- 40
2019-08-15 10:00:00 26.2 15 Norte 23 Norte 0 -- -- 46
2019-08-15 09:00:00 23.7 18 Norte 23 Norte 0 -- -- 56
2019-08-15 08:00:00 21.5 14 Norte 21 Norte 0 -- -- 65
2019-08-15 07:00:00 22.6 18 Norte 26 Norte 0 -- -- 62
2019-08-15 06:00:00 23.4 20 Norte 30 Norte 0 -- -- 62
2019-08-15 05:00:00 21.8 14 Norte 18 Norte 0 -- -- 65
2019-08-15 04:00:00 23.1 16 Norte 19 Norte 0 -- -- 58
2019-08-15 03:00:00 23.4 12 Norte 18 Norte 0 -- -- 55
2019-08-15 02:00:00 24.2 16 Norte 18 Norte 0 -- -- 52
2019-08-15 01:00:00 25 13 Noroeste 18 Noroeste 0 -- -- 47
2019-08-15 00:00:00 26.6 16 Noroeste 28 Noroeste 0 -- -- 43
2019-08-14 23:00:00 28.1 20 Oeste 26 Oeste 0 -- -- 37
2019-08-14 22:00:00 30.1 15 Oeste 23 Oeste 0 -- -- 30
2019-08-14 21:00:00 33.5 6 Sudoeste 13 Oeste 0 -- -- 19
2019-08-14 20:00:00 34.4 5 Noroeste 15 Noroeste 0 -- -- 17
2019-08-14 19:00:00 35.1 5 Oeste 17 Oeste 0 -- -- 16
2019-08-14 18:00:00 34.7 9 Noroeste 26 Noroeste 0 -- -- 16
2019-08-14 17:00:00 34.4 14 Oeste 31 Oeste 0 -- -- 17
2019-08-14 16:00:00 34 7 Oeste 21 Oeste 0 -- -- 17
2019-08-14 15:00:00 33.2 9 Norte 24 Noroeste 0 -- -- 17
2019-08-14 14:00:00 32 8 Noroeste 19 Noroeste 0 -- -- 18
2019-08-14 13:00:00 30.7 7 Noroeste 19 Nordeste 0 -- -- 19
2019-08-14 12:00:00 29.1 7 Este 17 Nordeste 0 -- -- 21
2019-08-14 11:00:00 26.9 11 Nordeste 20 Nordeste 0 -- -- 23
2019-08-14 10:00:00 24.2 10 Norte 14 Norte 0 -- -- 31
2019-08-14 09:00:00 20.1 9 Norte 12 Norte 0 -- -- 41
2019-08-14 08:00:00 18.2 8 Nordeste 18 Norte 0 -- -- 45
2019-08-14 07:00:00 17.6 12 Norte 14 Norte 0 -- -- 42
2019-08-14 06:00:00 18.7 5 Nordeste 16 Noroeste 0 -- -- 39
2019-08-14 05:00:00 19 16 Norte 19 Noroeste 0 -- -- 36
2019-08-14 04:00:00 20 15 Norte 18 Norte 0 -- -- 31
2019-08-14 03:00:00 20.1 15 Norte 18 Norte 0 -- -- 29
2019-08-14 02:00:00 21.5 14 Norte 23 Norte 0 -- -- 27
2019-08-14 01:00:00 23.5 19 Norte 24 Norte 0 -- -- 25
2019-08-14 00:00:00 23.8 17 Norte 22 Norte 0 -- -- 26
2019-08-13 23:00:00 24.7 13 Norte 16 Norte 0 -- -- 24
2019-08-13 22:00:00 27.4 7 Noroeste 12 Noroeste 0 -- -- 22
2019-08-13 21:00:00 30.1 7 Noroeste 19 Noroeste 0 -- -- 19
2019-08-13 20:00:00 31.6 6 Noroeste 18 Norte 0 -- -- 17
2019-08-13 19:00:00 31.7 12 Norte 26 Noroeste 0 -- -- 15
2019-08-13 18:00:00 32 10 Noroeste 22 Noroeste 0 -- -- 15
2019-08-13 17:00:00 31.7 13 Noroeste 27 Norte 0 -- -- 16
2019-08-13 16:00:00 31.1 14 Norte 25 Este 0 -- -- 19
2019-08-13 15:00:00 30.8 12 Norte 24 Nordeste 0 -- -- 21
2019-08-13 14:00:00 29.7 9 Este 29 Nordeste 0 -- -- 23
2019-08-13 13:00:00 28.2 12 Este 30 Este 0 -- -- 25
2019-08-13 12:00:00 26.4 25 Este 37 Nordeste 0 -- -- 30
2019-08-13 11:00:00 24.2 20 Nordeste 30 Nordeste 0 -- -- 34
2019-08-13 10:00:00 21.3 21 Nordeste 30 Nordeste 0 -- -- 36
2019-08-13 09:00:00 19.1 21 Nordeste 30 Nordeste 0 -- -- 39
2019-08-13 08:00:00 16.8 21 Nordeste 25 Nordeste 0 -- -- 42
2019-08-13 07:00:00 16.4 17 Norte 23 Nordeste 0 -- -- 42
2019-08-13 06:00:00 16.1 17 Norte 21 Norte 0 -- -- 39
2019-08-13 05:00:00 16.2 17 Norte 19 Norte 0 -- -- 38
2019-08-13 04:00:00 17.4 14 Norte 20 Norte 0 -- -- 35
2019-08-13 03:00:00 18.7 16 Norte 22 Norte 0 -- -- 32
2019-08-13 02:00:00 19.7 19 Norte 22 Norte 0 -- -- 31
2019-08-13 01:00:00 21 18 Norte 24 Norte 0 -- -- 29
2019-08-13 00:00:00 22.5 18 Norte 21 Norte 0 -- -- 27
2019-08-12 23:00:00 22.6 11 Norte 19 Norte 0 -- -- 27
2019-08-12 22:00:00 23.8 15 Norte 31 Norte 0 -- -- 24
2019-08-12 21:00:00 25.6 21 Norte 30 Norte 0 -- -- 22
2019-08-12 20:00:00 27.8 16 Norte 30 Noroeste 0 -- -- 21
2019-08-12 19:00:00 28.6 12 Norte 38 Norte 0 -- -- 20
2019-08-12 18:00:00 28.8 17 Noroeste 34 Noroeste 0 -- -- 20
2019-08-12 17:00:00 28.2 15 Norte 36 Norte 0 -- -- 21
2019-08-12 16:00:00 27.5 18 Nordeste 35 Norte 0 -- -- 24
2019-08-12 15:00:00 27.1 18 Norte 35 Norte 0 -- -- 25
2019-08-12 14:00:00 25.1 17 Nordeste 37 Nordeste 0 -- -- 27
2019-08-12 13:00:00 24.6 21 Nordeste 39 Norte 0 -- -- 32
2019-08-12 12:00:00 22.6 26 Norte 48 Norte 0 -- -- 35
2019-08-12 11:00:00 20.6 28 Norte 39 Norte 0 -- -- 40
2019-08-12 10:00:00 18.5 22 Norte 39 Nordeste 0 -- -- 47
2019-08-12 09:00:00 16.1 19 Norte 29 Norte 0 -- -- 57
2019-08-12 08:00:00 14.2 22 Norte 31 Norte 0 -- -- 64
2019-08-12 07:00:00 14.1 23 Norte 29 Norte 0 -- -- 65
2019-08-12 06:00:00 13.2 21 Noroeste 25 Noroeste 0 -- -- 69
2019-08-12 05:00:00 13.4 6 Norte 14 Noroeste 0 -- -- 68
2019-08-12 04:00:00 14.3 15 Norte 26 Noroeste 0 -- -- 64
2019-08-12 03:00:00 15.5 20 Norte 25 Norte 0 -- -- 60
2019-08-12 02:00:00 15.8 18 Noroeste 28 Noroeste 0 -- -- 60
2019-08-12 01:00:00 17.2 24 Noroeste 30 Noroeste 0 -- -- 56
2019-08-12 00:00:00 17.8 24 Noroeste 34 Noroeste 0 -- -- 54
2019-08-11 23:00:00 19.3 26 Noroeste 37 Noroeste 0 -- -- 49
2019-08-11 22:00:00 21 30 Noroeste 42 Noroeste 0 -- -- 42
2019-08-11 21:00:00 23.6 28 Noroeste 37 Noroeste 0 -- -- 34
2019-08-11 20:00:00 25.5 22 Noroeste 37 Noroeste 0 -- -- 27
2019-08-11 19:00:00 25.5 19 Noroeste 39 Noroeste 0 -- -- 27
2019-08-11 18:00:00 26.9 20 Noroeste 43 Norte 0 -- -- 25
2019-08-11 17:00:00 26.9 20 Noroeste 42 Noroeste 0 -- -- 24
2019-08-11 16:00:00 25.9 26 Noroeste 38 Noroeste 0 -- -- 26
2019-08-11 15:00:00 24.9 27 Noroeste 49 Noroeste 0 -- -- 29
2019-08-11 14:00:00 24.3 26 Noroeste 40 Noroeste 0 -- -- 28
2019-08-11 13:00:00 23.6 26 Noroeste 38 Noroeste 0 -- -- 30
2019-08-11 12:00:00 22.2 22 Noroeste 34 Noroeste 0 -- -- 37
2019-08-11 11:00:00 20.1 22 Noroeste 32 Noroeste 0 -- -- 47
2019-08-11 10:00:00 17.6 21 Noroeste 32 Noroeste 0 -- -- 59
2019-08-11 09:00:00 15 22 Noroeste 28 Oeste 0 -- -- 72
2019-08-11 08:00:00 13.5 17 Oeste 24 Oeste 0 -- -- 79
2019-08-11 07:00:00 13.9 18 Oeste 24 Oeste 0 -- -- 78
2019-08-11 06:00:00 14.6 18 Oeste 29 Oeste 0 -- -- 75
2019-08-11 05:00:00 15.8 24 Oeste 35 Oeste 0 -- -- 70
2019-08-11 04:00:00 17.8 13 Oeste 21 Oeste 0 -- -- 58
2019-08-11 03:00:00 18.4 12 Norte 31 Noroeste 0 -- -- 56
2019-08-11 02:00:00 18.9 20 Noroeste 35 Noroeste 0 -- -- 56
2019-08-11 01:00:00 19.7 24 Oeste 34 Oeste 0 -- -- 55
2019-08-11 00:00:00 20.5 27 Oeste 38 Noroeste 0 -- -- 53
2019-08-10 23:00:00 21.7 30 Oeste 40 Oeste 0 -- -- 53
2019-08-10 22:00:00 24 30 Oeste 38 Oeste 0 -- -- 43
2019-08-10 21:00:00 26.9 25 Oeste 36 Oeste 0 -- -- 33
2019-08-10 20:00:00 28.6 21 Oeste 31 Oeste 0 -- -- 29
2019-08-10 19:00:00 29.2 15 Oeste 23 Sudoeste 0 -- -- 28
2019-08-10 18:00:00 29.6 12 Sudoeste 25 Sudoeste 0 -- -- 27
2019-08-10 17:00:00 29.6 9 Sudoeste 23 Oeste 0 -- -- 26
2019-08-10 16:00:00 28.6 7 Noroeste 20 Oeste 0 -- -- 27
2019-08-10 15:00:00 27.1 11 Norte 21 Norte 0 -- -- 33
2019-08-10 14:00:00 25.8 9 Oeste 21 Noroeste 0 -- -- 38
2019-08-10 13:00:00 24.4 10 Norte 17 Noroeste 0 -- -- 44
2019-08-10 12:00:00 22.4 5 Norte 15 Nordeste 0 -- -- 53
2019-08-10 11:00:00 20.3 9 Norte 17 Nordeste 0 -- -- 61
2019-08-10 10:00:00 18.7 10 Norte 15 Norte 0 -- -- 71
2019-08-10 09:00:00 14.7 8 Noroeste 14 Noroeste 0 -- -- 90
2019-08-10 08:00:00 13.8 10 Noroeste 14 Noroeste 0 -- -- 91
2019-08-10 07:00:00 14.1 9 Oeste 11 Oeste 0 -- -- 89
2019-08-10 06:00:00 14.9 9 Oeste 14 Oeste 0 -- -- 86
2019-08-10 05:00:00 15.1 9 Noroeste 16 Noroeste 0 -- -- 84
2019-08-10 04:00:00 15.9 11 Noroeste 14 Noroeste 0 -- -- 80
2019-08-10 03:00:00 16 9 Noroeste 16 Noroeste 0 -- -- 80
2019-08-10 02:00:00 17.1 12 Norte 26 Oeste 0 -- -- 76
2019-08-10 01:00:00 18.3 20 Noroeste 23 Noroeste 0 -- -- 67
2019-08-10 00:00:00 19.9 17 Oeste 21 Oeste 0 -- -- 67
2019-08-09 23:00:00 20.5 8 Oeste 11 Oeste 0 -- -- 65
2019-08-09 22:00:00 21.5 6 Norte 13 Noroeste 0 -- -- 61
2019-08-09 21:00:00 23.9 9 Noroeste 16 Noroeste 0 -- -- 53
2019-08-09 20:00:00 24.8 9 Noroeste 22 Oeste 0 -- -- 50
2019-08-09 19:00:00 24.4 9 Noroeste 20 Sudoeste 0 -- -- 53
2019-08-09 18:00:00 22 11 Sudoeste 22 Oeste 0 -- -- 68
2019-08-09 17:00:00 19 10 Noroeste 33 Oeste 0 -- -- 80
2019-08-09 16:00:00 20.4 28 Noroeste 43 Noroeste 0 -- -- 71
2019-08-09 15:00:00 21.1 28 Oeste 38 Oeste 0 -- -- 79
2019-08-09 14:00:00 21.2 20 Noroeste 27 Noroeste 0 -- -- 86
2019-08-09 13:00:00 21.4 17 Oeste 28 Noroeste 0 -- -- 85
2019-08-09 12:00:00 20.7 22 Noroeste 36 Sur 1 -- -- 90
2019-08-09 11:00:00 22.4 26 Sudoeste 37 Sur 0 -- -- 83
2019-08-09 10:00:00 21.9 28 Sur 36 Sur 0 -- -- 85
2019-08-09 09:00:00 21.6 26 Sur 33 Sur 0 -- -- 86
2019-08-09 08:00:00 21.1 25 Sur 32 Sur 0 -- -- 87
2019-08-09 07:00:00 20.8 17 Sur 24 Sur 0 -- -- 84
2019-08-09 06:00:00 20.1 10 Sur 14 Sur 0 -- -- 85
2019-08-09 05:00:00 20.6 10 Oeste 17 Oeste 0 -- -- 83
2019-08-09 04:00:00 20.8 7 Oeste 15 Oeste 0 -- -- 83
2019-08-09 03:00:00 21 9 Noroeste 26 Oeste 0 -- -- 82
2019-08-09 02:00:00 20.8 14 Noroeste 33 Oeste 0 -- -- 82
2019-08-09 01:00:00 22.1 22 Oeste 31 Oeste 0 -- -- 78
2019-08-09 00:00:00 23.4 20 Oeste 35 Oeste 0 -- -- 70
2019-08-08 23:00:00 25.3 24 Oeste 33 Oeste 0 -- -- 60
2019-08-08 22:00:00 26.9 23 Oeste 35 Oeste 0 -- -- 52
2019-08-08 21:00:00 29 26 Oeste 37 Oeste 0 -- -- 45
2019-08-08 20:00:00 30.8 27 Oeste 38 Sudoeste 0 -- -- 41
2019-08-08 19:00:00 31.4 24 Sudoeste 40 Sudoeste 0 -- -- 39
2019-08-08 18:00:00 32.2 24 Sudoeste 39 Sudoeste 0 -- -- 39
2019-08-08 17:00:00 32.5 22 Sudoeste 45 Sudoeste 0 -- -- 38
2019-08-08 16:00:00 31.2 22 Sudoeste 36 Sudoeste 0 -- -- 43
2019-08-08 15:00:00 30.1 20 Sudoeste 34 Sudoeste 0 -- -- 46
2019-08-08 14:00:00 29.7 14 Sudoeste 35 Sudoeste 0 -- -- 48
2019-08-08 13:00:00 28.8 17 Sur 30 Sur 0 -- -- 43
2019-08-08 12:00:00 26.6 13 Sur 21 Sur 0 -- -- 55
2019-08-08 11:00:00 24.1 8 Oeste 15 Sudoeste 0 -- -- 70
2019-08-08 10:00:00 22 10 Oeste 22 Oeste 0 -- -- 78
2019-08-08 09:00:00 21.2 5 Sudoeste 9 Sudoeste 0 -- -- 77
2019-08-08 08:00:00 19.5 4 Sudoeste 12 Oeste 0 -- -- 76
2019-08-08 07:00:00 19.1 8 Oeste 10 Oeste 0 -- -- 77
2019-08-08 06:00:00 19.3 5 Oeste 9 Oeste 0 -- -- 75
2019-08-08 05:00:00 19.5 9 Oeste 13 Oeste 0 -- -- 71
2019-08-08 04:00:00 20 8 Noroeste 13 Noroeste 0 -- -- 68
2019-08-08 03:00:00 20.8 10 Noroeste 15 Oeste 0 -- -- 63
2019-08-08 02:00:00 21.4 5 Sur 8 Sudeste 0 -- -- 59
2019-08-08 01:00:00 22.3 4 Sudeste 6 Sudeste 0 -- -- 55
2019-08-08 00:00:00 22.9 3 Norte 8 Noroeste 0 -- -- 54
2019-08-07 23:00:00 22.7 8 Noroeste 9 Noroeste 0 -- -- 54
2019-08-07 22:00:00 23.4 10 Noroeste 15 Noroeste 0 -- -- 53
2019-08-07 21:00:00 25.7 13 Noroeste 18 Noroeste 0 -- -- 50
2019-08-07 20:00:00 26.2 11 Noroeste 21 Oeste 0 -- -- 51
2019-08-07 19:00:00 26.8 13 Oeste 25 Oeste 0 -- -- 49
2019-08-07 18:00:00 26.9 13 Oeste 21 Oeste 0 -- -- 49
2019-08-07 17:00:00 27.3 15 Oeste 31 Oeste 0 -- -- 49
2019-08-07 16:00:00 26.1 9 Oeste 22 Sudoeste 0 -- -- 51
2019-08-07 15:00:00 23.6 14 Sudoeste 19 Sudoeste 0.2 -- -- 63
2019-08-07 14:00:00 21.2 7 Norte 13 Norte 0 -- -- 73
2019-08-07 13:00:00 20.1 8 Sudoeste 17 Oeste 0.4 -- -- 82
2019-08-07 12:00:00 19.5 15 Oeste 23 Oeste 0.2 -- -- 85
2019-08-07 11:00:00 20.5 8 Oeste 18 Noroeste 0 -- -- 75
2019-08-07 10:00:00 19.5 12 Oeste 16 Oeste 0 -- -- 79
2019-08-07 09:00:00 19.2 11 Oeste 14 Oeste 0 -- -- 79
2019-08-07 08:00:00 18.6 8 Oeste 17 Oeste 0 -- -- 82
2019-08-07 07:00:00 18.5 13 Oeste 17 Oeste 0 -- -- 82
2019-08-07 06:00:00 18.8 10 Sudoeste 15 Oeste 0 -- -- 80
2019-08-07 05:00:00 19.1 9 Sudoeste 16 Sudoeste 0 -- -- 78
2019-08-07 04:00:00 19.8 12 Oeste 21 Noroeste 0 -- -- 74
2019-08-07 03:00:00 20.2 14 Noroeste 18 Oeste 0 -- -- 73
2019-08-07 02:00:00 20.9 12 Oeste 16 Sudoeste 0 -- -- 69
2019-08-07 01:00:00 22 13 Oeste 21 Oeste 0 -- -- 63
2019-08-07 00:00:00 23.1 13 Oeste 28 Oeste 0 -- -- 61
2019-08-06 23:00:00 24.3 18 Oeste 28 Oeste 0 -- -- 54
2019-08-06 22:00:00 25.5 19 Oeste 31 Oeste 0 -- -- 48
2019-08-06 21:00:00 27.4 26 Oeste 35 Oeste 0 -- -- 40
2019-08-06 20:00:00 29.5 26 Oeste 37 Oeste 0 -- -- 36
2019-08-06 19:00:00 31.1 26 Oeste 42 Oeste 0 -- -- 33
2019-08-06 18:00:00 33.4 22 Oeste 36 Oeste 0 -- -- 29
2019-08-06 17:00:00 33.7 19 Oeste 34 Oeste 0 -- -- 26
2019-08-06 16:00:00 33.4 14 Sudoeste 27 Sudoeste 0 -- -- 29
2019-08-06 15:00:00 32.7 14 Sudoeste 26 Sudoeste 0 -- -- 31
2019-08-06 14:00:00 30.5 9 Sudoeste 24 Sur 0 -- -- 36
2019-08-06 13:00:00 28.3 12 Sudoeste 21 Sudoeste 0 -- -- 41
2019-08-06 12:00:00 25.7 8 Sur 17 Sudoeste 0 -- -- 48
2019-08-06 11:00:00 23.9 9 Sudoeste 17 Sudoeste 0 -- -- 54
2019-08-06 10:00:00 21.4 11 Sudoeste 16 Sur 0 -- -- 64
2019-08-06 09:00:00 18.7 9 Sudoeste 13 Sur 0 -- -- 75
2019-08-06 08:00:00 17 6 Sur 9 Noroeste 0 -- -- 81
2019-08-06 07:00:00 16.7 8 Noroeste 18 Noroeste 0 -- -- 83
2019-08-06 06:00:00 17.5 15 Noroeste 21 Noroeste 0 -- -- 78
2019-08-06 05:00:00 18.3 8 Oeste 10 Oeste 0 -- -- 69
2019-08-06 04:00:00 19.5 6 Sudoeste 12 Oeste 0 -- -- 59
2019-08-06 03:00:00 20 10 Noroeste 18 Noroeste 0 -- -- 59
2019-08-06 02:00:00 21.1 14 Noroeste 18 Noroeste 0 -- -- 54
2019-08-06 01:00:00 22.6 13 Noroeste 26 Oeste 0 -- -- 49
2019-08-06 00:00:00 24.8 22 Oeste 30 Oeste 0 -- -- 44
2019-08-05 23:00:00 27.1 24 Oeste 33 Oeste 0 -- -- 36
2019-08-05 22:00:00 29.3 23 Oeste 31 Oeste 0 -- -- 31
2019-08-05 21:00:00 32.8 12 Oeste 24 Oeste 0 -- -- 23
2019-08-05 20:00:00 34.2 12 Oeste 24 Oeste 0 -- -- 20
2019-08-05 19:00:00 34.7 10 Noroeste 24 Noroeste 0 -- -- 18
2019-08-05 18:00:00 34.8 13 Oeste 22 Oeste 0 -- -- 20
2019-08-05 17:00:00 34.1 12 Oeste 24 Oeste 0 -- -- 20
2019-08-05 16:00:00 33.3 13 Oeste 26 Sur 0 -- -- 22
2019-08-05 15:00:00 32.2 10 Sudoeste 24 Sur 0 -- -- 22
2019-08-05 14:00:00 30.3 10 Sudoeste 19 Sudoeste 0 -- -- 29
2019-08-05 13:00:00 28.6 9 Sudoeste 17 Sudoeste 0 -- -- 32
2019-08-05 12:00:00 26.3 8 Sur 16 Sur 0 -- -- 40
2019-08-05 11:00:00 23.2 4 Oeste 8 Oeste 0 -- -- 53
2019-08-05 10:00:00 19.8 3 Noroeste 10 Noroeste 0 -- -- 65
2019-08-05 09:00:00 16.9 7 Noroeste 12 Noroeste 0 -- -- 75
2019-08-05 08:00:00 14.7 8 Noroeste 13 Oeste 0 -- -- 83
2019-08-05 07:00:00 14.7 10 Noroeste 12 Noroeste 0 -- -- 83
2019-08-05 06:00:00 15.4 10 Noroeste 11 Noroeste 0 -- -- 82
2019-08-05 05:00:00 16.1 5 Oeste 12 Oeste 0 -- -- 78
2019-08-05 04:00:00 16.5 10 Oeste 13 Noroeste 0 -- -- 77
2019-08-05 03:00:00 17.2 13 Noroeste 17 Noroeste 0 -- -- 74
2019-08-05 02:00:00 18.5 14 Noroeste 16 Noroeste 0 -- -- 68
2019-08-05 01:00:00 20.1 13 Noroeste 20 Oeste 0 -- -- 61
2019-08-05 00:00:00 21.6 14 Noroeste 24 Oeste 0 -- -- 54
2019-08-04 23:00:00 24.2 16 Oeste 28 Oeste 0 -- -- 46
2019-08-04 22:00:00 26.6 22 Oeste 32 Oeste 0 -- -- 37
2019-08-04 21:00:00 29.6 24 Oeste 42 Oeste 0 -- -- 31
2019-08-04 20:00:00 32 27 Oeste 39 Oeste 0 -- -- 29
2019-08-04 19:00:00 33.6 27 Oeste 39 Oeste 0 -- -- 26
2019-08-04 18:00:00 34.8 16 Oeste 36 Oeste 0 -- -- 24
2019-08-04 17:00:00 34.7 17 Oeste 30 Oeste 0 -- -- 22
2019-08-04 16:00:00 34.5 15 Oeste 29 Oeste 0 -- -- 22
2019-08-04 15:00:00 33.6 8 Oeste 26 Sudoeste 0 -- -- 26
2019-08-04 14:00:00 31.7 13 Oeste 25 Sudoeste 0 -- -- 33
2019-08-04 13:00:00 29.6 9 Sudoeste 18 Sudoeste 0 -- -- 36
2019-08-04 12:00:00 27.3 9 Sudoeste 17 Sudoeste 0 -- -- 43
2019-08-04 11:00:00 24.9 9 Sudoeste 17 Oeste 0 -- -- 51
2019-08-04 10:00:00 22.2 8 Oeste 14 Noroeste 0 -- -- 60
2019-08-04 09:00:00 20.5 7 Sudoeste 15 Oeste 0 -- -- 66
2019-08-04 08:00:00 18.4 14 Oeste 17 Oeste 0 -- -- 75
2019-08-04 07:00:00 18 12 Oeste 17 Oeste 0 -- -- 76
2019-08-04 06:00:00 18.3 12 Oeste 16 Oeste 0 -- -- 75
2019-08-04 05:00:00 19 13 Noroeste 17 Noroeste 0 -- -- 72
2019-08-04 04:00:00 19.7 13 Noroeste 19 Noroeste 0 -- -- 69
2019-08-04 03:00:00 20.8 14 Noroeste 19 Noroeste 0 -- -- 64
2019-08-04 02:00:00 22 15 Noroeste 20 Noroeste 0 -- -- 56
2019-08-04 01:00:00 23.8 15 Oeste 23 Oeste 0 -- -- 49
2019-08-04 00:00:00 25.5 19 Oeste 30 Oeste 0 -- -- 47
2019-08-03 23:00:00 27.4 21 Oeste 31 Oeste 0 -- -- 39
2019-08-03 22:00:00 29.6 26 Oeste 35 Oeste 0 -- -- 34
2019-08-03 21:00:00 33.7 10 Oeste 18 Oeste 0 -- -- 20
2019-08-03 20:00:00 35 8 Sudoeste 24 Oeste 0 -- -- 20
2019-08-03 19:00:00 35.1 6 Este 18 Noroeste 0 -- -- 19
2019-08-03 18:00:00 35.3 6 Sur 21 Oeste 0 -- -- 17
2019-08-03 17:00:00 34.9 9 Oeste 25 Sur 0 -- -- 18
2019-08-03 16:00:00 34.3 12 Sudoeste 25 Sudoeste 0 -- -- 20
2019-08-03 15:00:00 33.3 15 Oeste 26 Sur 0 -- -- 22
2019-08-03 14:00:00 32.6 11 Sudeste 26 Sudoeste 0 -- -- 26
2019-08-03 13:00:00 30.5 9 Oeste 22 Oeste 0 -- -- 32
2019-08-03 12:00:00 28 10 Sudoeste 17 Sudoeste 0 -- -- 41
2019-08-03 11:00:00 26 8 Sur 16 Sur 0 -- -- 48
2019-08-03 10:00:00 23.2 11 Sudoeste 15 Sudoeste 0 -- -- 55
2019-08-03 09:00:00 21 5 Sudoeste 12 Oeste 0 -- -- 61
2019-08-03 08:00:00 18.6 7 Sudoeste 12 Oeste 0 -- -- 68
2019-08-03 07:00:00 18.5 9 Oeste 14 Oeste 0 -- -- 68
2019-08-03 06:00:00 18.8 11 Oeste 14 Oeste 0 -- -- 67
2019-08-03 05:00:00 19.6 9 Oeste 12 Oeste 0 -- -- 65
2019-08-03 04:00:00 20.6 12 Noroeste 14 Noroeste 0 -- -- 63
2019-08-03 03:00:00 20.8 11 Noroeste 19 Noroeste 0 -- -- 62
2019-08-03 02:00:00 22.2 13 Noroeste 17 Noroeste 0 -- -- 59
2019-08-03 01:00:00 23.6 14 Oeste 23 Oeste 0 -- -- 55
2019-08-03 00:00:00 25.4 17 Oeste 28 Oeste 0 -- -- 49
2019-08-02 23:00:00 27.4 20 Oeste 26 Oeste 0 -- -- 44
2019-08-02 22:00:00 30.9 7 Sudoeste 12 Sudoeste 0 -- -- 16
2019-08-02 21:00:00 33.4 8 Oeste 16 Sur 0 -- -- 14
2019-08-02 20:00:00 34.5 7 Sudoeste 21 Sudoeste 0 -- -- 15
2019-08-02 19:00:00 34.8 9 Oeste 17 Oeste 0 -- -- 15
2019-08-02 18:00:00 34.7 5 Noroeste 20 Sudeste 0 -- -- 15
2019-08-02 17:00:00 34.3 12 Sur 21 Sur 0 -- -- 17
2019-08-02 16:00:00 33.7 9 Sudoeste 17 Noroeste 0 -- -- 17
2019-08-02 15:00:00 32.2 7 Oeste 14 Sudoeste 0 -- -- 20
2019-08-02 14:00:00 30.9 6 Sudoeste 15 Sur 0 -- -- 22
2019-08-02 13:00:00 28.5 6 Oeste 20 Este 0 -- -- 28
2019-08-02 12:00:00 26 5 Sudeste 12 Sudoeste 0 -- -- 38
2019-08-02 11:00:00 23 5 Sudoeste 10 Sur 0 -- -- 46
2019-08-02 10:00:00 20.1 2 Noroeste 8 Oeste 0 -- -- 56
2019-08-02 09:00:00 17 3 Sudoeste 6 Sudoeste 0 -- -- 68
2019-08-02 08:00:00 14.7 5 Sudoeste 14 Oeste 0 -- -- 74
2019-08-02 07:00:00 14.9 11 Noroeste 16 Oeste 0 -- -- 74
2019-08-02 06:00:00 15 14 Oeste 15 Noroeste 0 -- -- 75
2019-08-02 05:00:00 15.4 14 Noroeste 21 Noroeste 0 -- -- 74
2019-08-02 04:00:00 16.3 16 Noroeste 21 Noroeste 0 -- -- 69
2019-08-02 03:00:00 17.3 17 Noroeste 21 Noroeste 0 -- -- 63
2019-08-02 02:00:00 18.5 11 Noroeste 15 Noroeste 0 -- -- 58
2019-08-02 01:00:00 20.4 12 Noroeste 21 Oeste 0 -- -- 50
2019-08-02 00:00:00 22.7 14 Oeste 26 Oeste 0 -- -- 43
2019-08-01 23:00:00 25 24 Oeste 34 Oeste 0 -- -- 31
2019-08-01 22:00:00 27.1 23 Oeste 36 Oeste 0 -- -- 25
2019-08-01 21:00:00 30 28 Oeste 37 Oeste 0 -- -- 22
2019-08-01 20:00:00 32.4 22 Oeste 40 Oeste 0 -- -- 21
2019-08-01 19:00:00 33.6 24 Oeste 38 Oeste 0 -- -- 19
2019-08-01 18:00:00 34.2 22 Oeste 36 Noroeste 0 -- -- 19
2019-08-01 17:00:00 34 21 Oeste 35 Oeste 0 -- -- 18
2019-08-01 16:00:00 33.7 18 Oeste 33 Sudoeste 0 -- -- 22
2019-08-01 15:00:00 32.7 14 Oeste 29 Oeste 0 -- -- 21
2019-08-01 14:00:00 31.4 12 Noroeste 23 Noroeste 0 -- -- 25
2019-08-01 13:00:00 29.9 6 Oeste 17 Noroeste 0 -- -- 28
2019-08-01 12:00:00 28 6 Sudoeste 12 Oeste 0 -- -- 33
2019-08-01 11:00:00 25.3 5 Sudoeste 9 Sudoeste 0 -- -- 40
2019-08-01 10:00:00 22.8 5 Noroeste 9 Noroeste 0 -- -- 46
2019-08-01 09:00:00 20.3 4 Sudoeste 9 Oeste 0 -- -- 53
2019-08-01 08:00:00 18.1 7 Oeste 12 Oeste 0 -- -- 59
2019-08-01 07:00:00 17.9 9 Oeste 15 Oeste 0 -- -- 59
2019-08-01 06:00:00 18.3 13 Noroeste 15 Noroeste 0 -- -- 58
2019-08-01 05:00:00 19.3 12 Oeste 17 Oeste 0 -- -- 55
2019-08-01 04:00:00 20.1 13 Noroeste 17 Oeste 0 -- -- 52
2019-08-01 03:00:00 21.3 11 Noroeste 15 Noroeste 0 -- -- 47
2019-08-01 02:00:00 22.4 13 Noroeste 18 Noroeste 0 -- -- 44
2019-08-01 01:00:00 24.4 12 Noroeste 19 Oeste 0 -- -- 38
2019-08-01 00:00:00 25.6 15 Oeste 22 Oeste 0 -- -- 37
2019-07-31 23:00:00 26.5 17 Oeste 25 Oeste 0 -- -- 32
2019-07-31 22:00:00 27.7 19 Oeste 34 Oeste 0 -- -- 33
2019-07-31 21:00:00 29.6 26 Oeste 37 Oeste 0 -- -- 28
2019-07-31 20:00:00 32.3 15 Oeste 23 Oeste 0 -- -- 16
2019-07-31 19:00:00 33.5 5 Noroeste 25 Oeste 0 -- -- 14
2019-07-31 18:00:00 34.4 14 Oeste 24 Sudoeste 0 -- -- 14
2019-07-31 17:00:00 34.5 10 Sur 33 Sur 0 -- -- 13
2019-07-31 16:00:00 33.6 12 Sur 32 Sudoeste 0 -- -- 15
2019-07-31 15:00:00 32.6 11 Sur 27 Sudoeste 0 -- -- 16
2019-07-31 14:00:00 32 14 Sudoeste 26 Sur 0 -- -- 18
2019-07-31 13:00:00 30.7 8 Sudeste 26 Sur 0 -- -- 20
2019-07-31 12:00:00 28.5 14 Este 30 Este 0 -- -- 27
2019-07-31 11:00:00 26.3 17 Este 33 Este 0 -- -- 36
2019-07-31 10:00:00 23.8 23 Nordeste 37 Nordeste 0 -- -- 40
2019-07-31 09:00:00 21.2 14 Nordeste 22 Nordeste 0 -- -- 39
2019-07-31 08:00:00 17.6 13 Norte 23 Nordeste 0 -- -- 43
2019-07-31 07:00:00 16.1 17 Norte 22 Nordeste 0 -- -- 47
2019-07-31 06:00:00 16.1 16 Norte 17 Norte 0 -- -- 46
2019-07-31 05:00:00 17.1 14 Noroeste 18 Noroeste 0 -- -- 40
2019-07-31 04:00:00 17.9 17 Noroeste 20 Noroeste 0 -- -- 36
2019-07-31 03:00:00 19.2 19 Noroeste 21 Noroeste 0 -- -- 34
2019-07-31 02:00:00 19.8 15 Noroeste 25 Norte 0 -- -- 32
2019-07-31 01:00:00 21.1 17 Norte 21 Norte 0 -- -- 29
2019-07-31 00:00:00 22.8 14 Norte 21 Norte 0 -- -- 27
2019-07-30 23:00:00 24 16 Norte 21 Norte 0 -- -- 25
2019-07-30 22:00:00 25.8 19 Norte 30 Norte 0 -- -- 22
2019-07-30 21:00:00 28.4 22 Norte 28 Norte 0 -- -- 19
2019-07-30 20:00:00 29.8 18 Norte 31 Norte 0 -- -- 19
2019-07-30 19:00:00 30.3 10 Norte 30 Nordeste 0 -- -- 19
2019-07-30 18:00:00 30.4 14 Norte 30 Norte 0 -- -- 19
2019-07-30 17:00:00 29.7 14 Noroeste 32 Noroeste 0 -- -- 20
2019-07-30 16:00:00 28.9 11 Noroeste 32 Noroeste 0 -- -- 22
2019-07-30 15:00:00 27.3 19 Norte 34 Norte 0 -- -- 23
2019-07-30 14:00:00 26 17 Norte 33 Norte 0 -- -- 26
2019-07-30 13:00:00 24.4 20 Norte 34 Norte 0 -- -- 29
2019-07-30 12:00:00 22.7 22 Norte 34 Norte 0 -- -- 32
2019-07-30 11:00:00 20.7 27 Norte 36 Norte 0 -- -- 38
2019-07-30 10:00:00 18.5 22 Norte 36 Norte 0 -- -- 46
2019-07-30 09:00:00 16.1 19 Norte 26 Norte 0 -- -- 56
2019-07-30 08:00:00 14.1 17 Norte 38 Norte 0 -- -- 62
2019-07-30 07:00:00 15 30 Norte 45 Norte 0 -- -- 58
2019-07-30 06:00:00 14.3 20 Norte 29 Norte 0 -- -- 62
2019-07-30 05:00:00 14.4 16 Noroeste 22 Norte 0 -- -- 64
2019-07-30 04:00:00 15 21 Noroeste 24 Norte 0 -- -- 61
2019-07-30 03:00:00 15.6 19 Norte 24 Noroeste 0 -- -- 58
2019-07-30 02:00:00 17.1 20 Noroeste 25 Noroeste 0 -- -- 54
2019-07-30 01:00:00 18.1 19 Noroeste 27 Noroeste 0 -- -- 51
2019-07-30 00:00:00 19.4 19 Noroeste 27 Noroeste 0 -- -- 46
2019-07-29 23:00:00 21.3 21 Noroeste 35 Noroeste 0 -- -- 39
2019-07-29 22:00:00 23.4 27 Noroeste 40 Oeste 0 -- -- 33
2019-07-29 21:00:00 25.9 33 Noroeste 46 Oeste 0 -- -- 33
2019-07-29 20:00:00 28.1 30 Noroeste 43 Noroeste 0 -- -- 29
2019-07-29 19:00:00 29.6 23 Noroeste 39 Noroeste 0 -- -- 28
2019-07-29 18:00:00 30.5 24 Oeste 39 Noroeste 0 -- -- 29
2019-07-29 17:00:00 29.8 22 Noroeste 38 Oeste 0 -- -- 28
2019-07-29 16:00:00 29.2 22 Oeste 35 Oeste 0 -- -- 28
2019-07-29 15:00:00 28 21 Oeste 35 Noroeste 0 -- -- 33
2019-07-29 14:00:00 27.5 18 Noroeste 34 Oeste 0 -- -- 37
2019-07-29 13:00:00 25.9 17 Noroeste 30 Noroeste 0 -- -- 43
2019-07-29 12:00:00 24.1 11 Oeste 28 Oeste 0 -- -- 45
2019-07-29 11:00:00 22.5 15 Noroeste 22 Noroeste 0 -- -- 42
2019-07-29 10:00:00 20.3 14 Noroeste 20 Noroeste 0 -- -- 43
2019-07-29 09:00:00 17.4 14 Noroeste 19 Oeste 0 -- -- 53
2019-07-29 08:00:00 14.8 15 Oeste 21 Oeste 0 -- -- 64
2019-07-29 07:00:00 14.1 15 Noroeste 20 Oeste 0 -- -- 68
2019-07-29 06:00:00 14.5 15 Noroeste 18 Noroeste 0 -- -- 67
2019-07-29 05:00:00 14.8 14 Noroeste 19 Oeste 0 -- -- 68
2019-07-29 04:00:00 16.1 13 Oeste 20 Oeste 0 -- -- 67
2019-07-29 03:00:00 17.6 12 Oeste 19 Oeste 0 -- -- 65
2019-07-29 02:00:00 19.3 17 Noroeste 28 Oeste 0 -- -- 61
2019-07-29 01:00:00 21 21 Oeste 33 Oeste 0 -- -- 55
2019-07-29 00:00:00 22.8 23 Oeste 33 Oeste 0 -- -- 51
2019-07-28 23:00:00 24.9 26 Oeste 37 Oeste 0 -- -- 46
2019-07-28 22:00:00 27.3 21 Oeste 35 Oeste 0 -- -- 36
2019-07-28 21:00:00 29.8 17 Oeste 24 Oeste 0 -- -- 30
2019-07-28 20:00:00 31.2 16 Noroeste 32 Oeste 0 -- -- 26
2019-07-28 19:00:00 31.8 9 Oeste 27 Oeste 0 -- -- 22
2019-07-28 18:00:00 31.7 13 Sudoeste 26 Sur 0 -- -- 25
2019-07-28 17:00:00 30.8 12 Noroeste 26 Noroeste 0 -- -- 27
2019-07-28 16:00:00 30.4 13 Noroeste 29 Oeste 0 -- -- 29
2019-07-28 15:00:00 29.9 10 Noroeste 27 Norte 0 -- -- 33
2019-07-28 14:00:00 29.3 6 Noroeste 22 Oeste 0 -- -- 36
2019-07-28 13:00:00 27 8 Oeste 15 Noroeste 0 -- -- 41
2019-07-28 12:00:00 26.1 5 Este 16 Este 0 -- -- 44
2019-07-28 11:00:00 24 8 Nordeste 19 Este 0 -- -- 50
2019-07-28 10:00:00 21.2 7 Norte 13 Norte 0 -- -- 60
2019-07-28 09:00:00 17.9 4 Oeste 8 Noroeste 0 -- -- 78
2019-07-28 08:00:00 15.2 5 Noroeste 12 Noroeste 0 -- -- 88
2019-07-28 07:00:00 15.2 10 Noroeste 12 Noroeste 0 -- -- 88
2019-07-28 06:00:00 15.5 10 Noroeste 14 Noroeste 0 -- -- 86
2019-07-28 05:00:00 15.9 9 Noroeste 14 Noroeste 0 -- -- 84
2019-07-28 04:00:00 16.4 11 Noroeste 13 Noroeste 0 -- -- 81
2019-07-28 03:00:00 17.3 11 Noroeste 17 Noroeste 0 -- -- 77
2019-07-28 02:00:00 17.9 13 Noroeste 16 Noroeste 0 -- -- 74
2019-07-28 01:00:00 18.8 13 Noroeste 21 Oeste 0 -- -- 71
2019-07-28 00:00:00 20 18 Oeste 27 Oeste 0 -- -- 67
2019-07-27 23:00:00 21.2 19 Oeste 27 Oeste 0 -- -- 59
2019-07-26 12:00:00 23.7 22 Noroeste 28 Noroeste 0 -- -- 35
2019-07-26 11:00:00 21.6 18 Noroeste 26 Noroeste 0 -- -- 47
2019-07-26 10:00:00 19.6 15 Noroeste 22 Noroeste 0 -- -- 51
2019-07-26 09:00:00 18.1 15 Noroeste 20 Noroeste 0 -- -- 56
2019-07-26 08:00:00 15.4 10 Noroeste 15 Noroeste 0 -- -- 75
2019-07-26 07:00:00 14.8 12 Noroeste 17 Oeste 0 -- -- 81
2019-07-26 06:00:00 15.1 11 Oeste 21 Oeste 0 -- -- 79
2019-07-26 05:00:00 15.8 15 Oeste 22 Oeste 0 -- -- 76
2019-07-26 04:00:00 17.4 19 Oeste 29 Oeste 0 -- -- 74
2019-07-26 03:00:00 19 21 Oeste 27 Oeste 0 -- -- 73
2019-07-26 02:00:00 19.9 24 Noroeste 29 Noroeste 0 -- -- 74
2019-07-26 01:00:00 21 24 Oeste 32 Oeste 0 -- -- 73
2019-07-26 00:00:00 22.1 24 Noroeste 35 Oeste 0 -- -- 71
2019-07-25 23:00:00 23.4 26 Oeste 39 Oeste 0 -- -- 65
2019-07-25 22:00:00 25.3 34 Oeste 43 Oeste 0 -- -- 57
2019-07-25 21:00:00 27.9 31 Oeste 41 Oeste 0 -- -- 44
2019-07-25 20:00:00 30 22 Oeste 37 Oeste 0 -- -- 33
2019-07-25 19:00:00 32.4 21 Oeste 37 Oeste 0 -- -- 31
2019-07-25 18:00:00 32.8 23 Oeste 37 Sudoeste 0 -- -- 28
2019-07-25 17:00:00 32.8 15 Sudoeste 37 Oeste 0 -- -- 27
2019-07-25 16:00:00 32.5 20 Oeste 36 Oeste 0 -- -- 33
2019-07-25 15:00:00 32.4 16 Oeste 32 Sudoeste 0 -- -- 32
2019-07-25 14:00:00 30.9 11 Oeste 32 Sudoeste 0 -- -- 36
2019-07-25 13:00:00 28.3 9 Oeste 24 Noroeste 0 -- -- 44
2019-07-25 12:00:00 27.4 11 Oeste 22 Oeste 0 -- -- 47
2019-07-25 11:00:00 25.3 13 Oeste 20 Oeste 0 -- -- 54
2019-07-25 10:00:00 23.3 13 Oeste 19 Oeste 0 -- -- 59
2019-07-25 09:00:00 21.9 13 Oeste 19 Oeste 0 -- -- 60
2019-07-25 08:00:00 19.5 8 Sudoeste 14 Sur 0 -- -- 61
2019-07-25 07:00:00 20 10 Sudoeste 14 Sudoeste 0 -- -- 59
2019-07-25 06:00:00 20.2 6 Sur 9 Oeste 0 -- -- 55
2019-07-25 05:00:00 21.3 7 Oeste 10 Sudoeste 0 -- -- 52
2019-07-25 04:00:00 22.5 7 Sudoeste 11 Oeste 0 -- -- 47
2019-07-25 03:00:00 22.8 7 Oeste 14 Oeste 0 -- -- 41
2019-07-25 02:00:00 24 14 Oeste 21 Noroeste 0 -- -- 38
2019-07-25 01:00:00 25.3 16 Noroeste 29 Oeste 0 -- -- 37
2019-07-25 00:00:00 27.2 24 Noroeste 33 Oeste 0 -- -- 35
2019-07-24 23:00:00 28.9 24 Oeste 32 Oeste 0 -- -- 35
2019-07-24 22:00:00 31.1 26 Oeste 38 Oeste 0 -- -- 25
2019-07-24 21:00:00 34.2 23 Oeste 32 Oeste 0 -- -- 23
2019-07-24 20:00:00 36 20 Sudoeste 30 Sudoeste 0 -- -- 21
2019-07-24 19:00:00 36.7 21 Sur 50 Sur 0 -- -- 18
2019-07-24 18:00:00 37 22 Sudoeste 37 Sur 0 -- -- 21
2019-07-24 17:00:00 37.2 18 Sudoeste 40 Sur 0 -- -- 22
2019-07-24 16:00:00 36.8 21 Sur 39 Sudoeste 0 -- -- 22
2019-07-24 15:00:00 35.9 7 Sur 23 Sur 0 -- -- 25
2019-07-24 14:00:00 34.5 9 Oeste 23 Oeste 0 -- -- 26
2019-07-24 13:00:00 33 8 Noroeste 16 Sur 0 -- -- 27
2019-07-24 12:00:00 31.7 6 Sur 14 Sudoeste 0 -- -- 29
2019-07-24 11:00:00 29.7 6 Sur 14 Sur 0 -- -- 34
2019-07-24 10:00:00 27.5 5 Sur 9 Este 0 -- -- 43
2019-07-24 09:00:00 24 7 Nordeste 10 Nordeste 0 -- -- 52
2019-07-24 08:00:00 20.5 6 Noroeste 7 Oeste 0 -- -- 58
2019-07-24 07:00:00 20.5 4 Norte 11 Noroeste 0 -- -- 58
2019-07-24 06:00:00 20.8 11 Noroeste 14 Noroeste 0 -- -- 57
2019-07-24 05:00:00 21.9 5 Noroeste 9 Noroeste 0 -- -- 55
2019-07-24 04:00:00 22.7 5 Noroeste 13 Norte 0 -- -- 56
2019-07-24 03:00:00 23.9 6 Norte 8 Norte 0 -- -- 54
2019-07-24 02:00:00 23.8 5 Norte 13 Noroeste 0 -- -- 53
2019-07-24 01:00:00 25.1 12 Noroeste 16 Oeste 0 -- -- 50
2019-07-24 00:00:00 26.2 12 Oeste 22 Oeste 0 -- -- 44
2019-07-23 23:00:00 27.9 13 Oeste 23 Oeste 0 -- -- 31
2019-07-23 22:00:00 29.5 18 Oeste 39 Oeste 0 -- -- 31
2019-07-23 21:00:00 32.7 25 Oeste 39 Oeste 0 -- -- 30
2019-07-23 20:00:00 35.1 22 Oeste 35 Oeste 0 -- -- 25
2019-07-23 19:00:00 36.2 13 Sudoeste 27 Sudoeste 0 -- -- 25
2019-07-23 18:00:00 36.4 14 Sudoeste 32 Sur 0 -- -- 24
2019-07-23 17:00:00 35.9 17 Sudoeste 30 Sur 0 -- -- 25
2019-07-23 16:00:00 35.4 17 Sudoeste 34 Sudoeste 0 -- -- 29
2019-07-23 15:00:00 34.8 17 Sur 31 Sur 0 -- -- 31
2019-07-23 14:00:00 33.4 15 Sur 29 Sur 0 -- -- 32
2019-07-23 13:00:00 31.7 12 Sur 26 Sur 0 -- -- 35
2019-07-23 12:00:00 30.9 16 Sur 31 Sudeste 0 -- -- 37
2019-07-23 11:00:00 29.1 12 Sur 23 Sudeste 0 -- -- 42
2019-07-23 10:00:00 27.7 13 Sudeste 26 Este 0 -- -- 43
2019-07-23 09:00:00 26 19 Este 32 Este 0 -- -- 42
2019-07-23 08:00:00 24.6 23 Este 42 Este 0 -- -- 48
2019-07-23 07:00:00 24.7 23 Este 35 Este 0 -- -- 50
2019-07-23 06:00:00 24.7 21 Nordeste 26 Nordeste 0 -- -- 53
2019-07-23 05:00:00 24.4 11 Nordeste 15 Norte 0 -- -- 56
2019-07-23 04:00:00 25.6 13 Noroeste 18 Norte 0 -- -- 53
2019-07-23 03:00:00 26.2 8 Sudoeste 21 Oeste 0 -- -- 51
2019-07-23 02:00:00 27.6 13 Oeste 17 Oeste 0 -- -- 46
2019-07-23 01:00:00 28.2 5 Norte 22 Noroeste 0 -- -- 43
2019-07-23 00:00:00 29.8 19 Noroeste 28 Noroeste 0 -- -- 40
2019-07-22 23:00:00 31.3 23 Noroeste 32 Noroeste 0 -- -- 36
2019-07-22 22:00:00 33.3 24 Oeste 32 Oeste 0 -- -- 28
2019-07-22 21:00:00 36.3 23 Oeste 32 Oeste 0 -- -- 20
2019-07-22 20:00:00 37.8 25 Sudoeste 34 Sudoeste 0 -- -- 19
2019-07-22 19:00:00 39.3 21 Sudoeste 32 Sudoeste 0 -- -- 19
2019-07-22 18:00:00 39.9 9 Sudeste 21 Sudeste 0 -- -- 19
2019-07-22 17:00:00 39.8 8 Este 26 Este 0 -- -- 18
2019-07-22 16:00:00 38.9 14 Este 27 Este 0 -- -- 19
2019-07-22 15:00:00 38.3 10 Este 28 Nordeste 0 -- -- 20
2019-07-22 14:00:00 36.9 13 Sudeste 28 Este 0 -- -- 22
2019-07-22 13:00:00 35.5 11 Este 21 Este 0 -- -- 23
2019-07-22 12:00:00 33.8 13 Sudeste 27 Este 0 -- -- 27
2019-07-22 11:00:00 31.5 20 Sudeste 33 Sudeste 0 -- -- 30
2019-07-22 10:00:00 29.1 17 Este 28 Este 0 -- -- 35
2019-07-22 09:00:00 25.5 10 Este 15 Nordeste 0 -- -- 48
2019-07-22 08:00:00 22.8 5 Norte 10 Norte 0 -- -- 59
2019-07-22 07:00:00 22.8 9 Norte 13 Este 0 -- -- 59
2019-07-22 06:00:00 22.1 9 Nordeste 13 Noroeste 0 -- -- 60
2019-07-22 05:00:00 22.8 10 Noroeste 15 Noroeste 0 -- -- 58
2019-07-22 04:00:00 23.4 13 Noroeste 15 Noroeste 0 -- -- 56
2019-07-22 03:00:00 23.8 12 Noroeste 14 Noroeste 0 -- -- 53
2019-07-22 02:00:00 25 10 Noroeste 18 Noroeste 0 -- -- 50
2019-07-22 01:00:00 25.9 15 Noroeste 24 Oeste 0 -- -- 46
2019-07-22 00:00:00 27.2 18 Oeste 25 Noroeste 0 -- -- 42